createdAt,value
2017-09-07T00:00:43.148Z,3.03
2017-09-07T00:03:10.736Z,3.43
2017-09-07T00:05:38.256Z,3.43
2017-09-07T00:08:05.780Z,4.03
2017-09-07T00:10:33.327Z,3.90
2017-09-07T00:13:00.853Z,3.80
2017-09-07T00:15:28.427Z,4.07
2017-09-07T00:17:55.992Z,3.80
2017-09-07T00:20:23.520Z,4.90
2017-09-07T00:22:51.105Z,4.67
2017-09-07T00:25:18.637Z,3.80
2017-09-07T00:27:46.159Z,4.47
2017-09-07T00:30:13.718Z,3.90
2017-09-07T00:32:41.248Z,4.27
2017-09-07T00:35:08.780Z,3.70
2017-09-07T00:37:36.348Z,4.33
2017-09-07T00:40:03.872Z,4.10
2017-09-07T00:42:31.428Z,4.00
2017-09-07T00:44:58.968Z,4.10
2017-09-07T00:47:26.544Z,3.60
2017-09-07T00:49:54.123Z,3.30
2017-09-07T00:52:21.761Z,4.97
2017-09-07T00:54:49.346Z,4.03
2017-09-07T00:57:16.868Z,3.53
2017-09-07T00:59:48.589Z,3.63
2017-09-07T01:02:16.156Z,3.67
2017-09-07T01:04:43.755Z,3.83
2017-09-07T01:07:11.276Z,3.57
2017-09-07T01:09:38.811Z,3.50
2017-09-07T01:12:06.364Z,3.50
2017-09-07T01:14:33.876Z,3.60
2017-09-07T01:17:01.449Z,3.90
2017-09-07T01:19:29.076Z,4.20
2017-09-07T01:21:56.595Z,3.90
2017-09-07T01:24:24.181Z,3.83
2017-09-07T01:26:51.680Z,5.07
2017-09-07T01:29:19.253Z,4.90
2017-09-07T01:31:46.784Z,4.30
2017-09-07T01:34:14.306Z,5.07
2017-09-07T01:36:41.868Z,4.30
2017-09-07T01:39:09.402Z,3.93
2017-09-07T01:41:36.937Z,3.97
2017-09-07T01:44:04.485Z,4.47
2017-09-07T01:46:32.363Z,4.80
2017-09-07T01:48:59.898Z,4.60
2017-09-07T01:51:27.427Z,4.60
2017-09-07T01:53:55.000Z,4.47
2017-09-07T01:56:22.516Z,4.43
2017-09-07T01:58:50.033Z,4.43
2017-09-07T02:01:17.644Z,4.40
2017-09-07T02:03:45.200Z,4.30
2017-09-07T02:06:12.732Z,4.80
2017-09-07T02:08:40.312Z,4.10
2017-09-07T02:11:07.894Z,4.70
2017-09-07T02:13:35.424Z,4.70
2017-09-07T02:16:02.992Z,4.23
2017-09-07T02:18:30.542Z,4.47
2017-09-07T02:20:58.098Z,4.30
2017-09-07T02:23:25.651Z,4.30
2017-09-07T02:25:53.199Z,4.20
2017-09-07T02:28:20.723Z,4.20
2017-09-07T02:30:48.292Z,4.03
2017-09-07T02:33:15.813Z,4.67
2017-09-07T02:35:43.341Z,3.90
2017-09-07T02:38:10.891Z,4.70
2017-09-07T02:40:38.418Z,4.90
2017-09-07T02:43:05.975Z,4.27
2017-09-07T02:45:33.517Z,4.80
2017-09-07T02:48:01.836Z,4.23
2017-09-07T02:50:29.351Z,4.87
2017-09-07T02:52:56.915Z,4.87
2017-09-07T02:55:24.448Z,3.97
2017-09-07T02:57:51.964Z,4.27
2017-09-07T03:00:19.504Z,4.90
2017-09-07T03:02:47.024Z,4.23
2017-09-07T03:05:14.584Z,4.27
2017-09-07T03:07:42.179Z,4.50
2017-09-07T03:10:09.776Z,4.73
2017-09-07T03:12:37.300Z,4.10
2017-09-07T03:15:04.822Z,4.03
2017-09-07T03:17:32.396Z,5.07
2017-09-07T03:19:59.919Z,4.10
2017-09-07T03:22:27.472Z,4.40
2017-09-07T03:24:54.992Z,4.80
2017-09-07T03:27:22.555Z,4.40
2017-09-07T03:29:50.072Z,4.50
2017-09-07T03:32:17.631Z,4.70
2017-09-07T03:34:45.145Z,5.00
2017-09-07T03:37:12.701Z,4.70
2017-09-07T03:39:40.266Z,4.70
2017-09-07T03:42:07.792Z,4.67
2017-09-07T03:44:36.182Z,4.83
2017-09-07T03:47:03.696Z,5.03
2017-09-07T03:49:31.225Z,4.90
2017-09-07T03:51:58.780Z,4.40
2017-09-07T03:54:26.298Z,4.10
2017-09-07T03:56:54.043Z,4.90
2017-09-07T03:59:21.592Z,4.53
2017-09-07T04:01:49.151Z,4.80
2017-09-07T04:04:16.675Z,4.90
2017-09-07T04:06:44.192Z,7.40
2017-09-07T04:09:11.749Z,4.13
2017-09-07T04:11:39.328Z,4.83
2017-09-07T04:14:06.908Z,4.80
2017-09-07T04:16:34.441Z,4.57
2017-09-07T04:19:02.297Z,4.40
2017-09-07T04:21:29.868Z,4.77
2017-09-07T04:23:57.395Z,5.87
2017-09-07T04:26:24.935Z,5.03
2017-09-07T04:28:52.495Z,4.50
2017-09-07T04:31:20.008Z,4.30
2017-09-07T04:33:47.559Z,4.70
2017-09-07T04:36:15.096Z,4.30
2017-09-07T04:38:42.667Z,5.90
2017-09-07T04:41:10.188Z,4.80
2017-09-07T04:43:37.748Z,4.40
2017-09-07T04:46:05.358Z,5.20
2017-09-07T04:48:32.868Z,6.23
2017-09-07T04:51:00.393Z,4.80
2017-09-07T04:53:27.953Z,5.80
2017-09-07T04:55:55.511Z,5.33
2017-09-07T04:58:23.043Z,5.60
2017-09-07T05:00:50.583Z,5.23
2017-09-07T05:03:18.147Z,6.27
2017-09-07T05:05:45.660Z,7.50
2017-09-07T05:08:13.251Z,6.60
2017-09-07T05:10:40.790Z,5.90
2017-09-07T05:13:08.311Z,5.90
2017-09-07T05:15:35.868Z,6.40
2017-09-07T05:18:03.391Z,6.37
2017-09-07T05:20:30.933Z,6.30
2017-09-07T05:22:58.505Z,5.13
2017-09-07T05:25:26.033Z,4.77
2017-09-07T05:27:53.574Z,4.40
2017-09-07T05:30:21.131Z,4.87
2017-09-07T05:32:48.647Z,4.03
2017-09-07T05:35:16.236Z,4.63
2017-09-07T05:37:43.755Z,4.60
2017-09-07T05:40:11.326Z,6.33
2017-09-07T05:42:38.871Z,4.83
2017-09-07T05:45:06.431Z,4.37
2017-09-07T05:47:33.952Z,4.83
2017-09-07T05:50:01.523Z,5.20
2017-09-07T05:52:29.047Z,6.50
2017-09-07T05:54:56.624Z,5.10
2017-09-07T05:57:24.149Z,5.20
2017-09-07T05:59:51.695Z,6.90
2017-09-07T06:02:19.252Z,5.07
2017-09-07T06:04:46.766Z,4.77
2017-09-07T06:07:14.335Z,4.57
2017-09-07T06:09:41.852Z,4.70
2017-09-07T06:12:09.376Z,4.17
2017-09-07T06:14:36.939Z,4.90
2017-09-07T06:17:04.476Z,4.60
2017-09-07T06:19:32.042Z,4.90
2017-09-07T06:21:59.563Z,4.50
2017-09-07T06:24:27.115Z,5.90
2017-09-07T06:26:54.677Z,4.90
2017-09-07T06:29:22.205Z,7.50
2017-09-07T06:31:49.762Z,5.10
2017-09-07T06:34:17.295Z,4.60
2017-09-07T06:36:44.888Z,5.10
2017-09-07T06:39:12.431Z,5.67
2017-09-07T06:41:39.980Z,5.90
2017-09-07T06:44:07.519Z,4.70
2017-09-07T06:46:35.042Z,4.40
2017-09-07T06:49:02.632Z,4.63
2017-09-07T06:51:30.176Z,5.40
2017-09-07T06:53:57.757Z,5.47
2017-09-07T06:56:25.331Z,6.00
2017-09-07T06:58:52.921Z,6.33
2017-09-07T07:01:20.453Z,5.80
2017-09-07T07:03:48.025Z,7.20
2017-09-07T07:06:15.646Z,6.80
2017-09-07T07:08:43.181Z,5.70
2017-09-07T07:11:10.715Z,6.90
2017-09-07T07:13:38.296Z,5.83
2017-09-07T07:16:05.815Z,9.63
2017-09-07T07:18:33.611Z,6.60
2017-09-07T07:21:01.196Z,6.60
2017-09-07T07:23:28.779Z,8.97
2017-09-07T07:25:56.378Z,6.37
2017-09-07T07:28:23.943Z,6.80
2017-09-07T07:30:51.856Z,5.80
2017-09-07T07:33:19.707Z,6.53
2017-09-07T07:35:47.392Z,4.80
2017-09-07T07:38:14.980Z,4.53
2017-09-07T07:40:42.648Z,8.30
2017-09-07T07:43:10.489Z,6.60
2017-09-07T07:45:38.162Z,4.57
2017-09-07T07:48:05.790Z,4.93
2017-09-07T07:50:33.368Z,5.57
2017-09-07T07:53:00.965Z,4.20
2017-09-07T07:55:28.624Z,4.43
2017-09-07T07:57:56.204Z,6.87
2017-09-07T08:00:23.764Z,6.00
2017-09-07T08:02:51.688Z,4.87
2017-09-07T08:05:19.471Z,4.40
2017-09-07T08:07:47.092Z,4.70
2017-09-07T08:10:14.666Z,4.87
2017-09-07T08:12:42.256Z,6.20
2017-09-07T08:15:09.874Z,5.90
2017-09-07T08:17:37.435Z,3.80
2017-09-07T08:20:05.020Z,3.50
2017-09-07T08:22:32.647Z,4.10
2017-09-07T08:25:00.215Z,4.37
2017-09-07T08:27:27.780Z,3.40
2017-09-07T08:29:55.328Z,3.60
2017-09-07T08:32:22.986Z,3.50
2017-09-07T08:34:50.549Z,3.50
2017-09-07T08:37:18.159Z,3.23
2017-09-07T08:39:45.743Z,3.00
2017-09-07T08:42:13.318Z,3.60
2017-09-07T08:44:40.936Z,3.80
2017-09-07T08:47:08.521Z,3.73
2017-09-07T08:49:36.155Z,3.90
2017-09-07T08:52:03.832Z,3.97
2017-09-07T08:54:31.456Z,4.43
2017-09-07T08:56:59.021Z,4.43
2017-09-07T08:59:26.584Z,3.53
2017-09-07T09:01:54.173Z,4.03
2017-09-07T09:04:21.724Z,3.63
2017-09-07T09:06:49.333Z,3.40
2017-09-07T09:09:17.800Z,3.27
2017-09-07T09:11:45.398Z,4.10
2017-09-07T09:14:13.036Z,4.60
2017-09-07T09:16:40.609Z,3.43
2017-09-07T09:19:12.035Z,4.40
2017-09-07T09:21:39.736Z,4.10
2017-09-07T09:24:07.297Z,4.40
2017-09-07T09:26:34.812Z,3.57
2017-09-07T09:29:02.362Z,4.23
2017-09-07T09:31:29.900Z,3.77
2017-09-07T09:33:57.433Z,3.27
2017-09-07T09:36:24.997Z,3.43
2017-09-07T09:38:52.527Z,3.60
2017-09-07T09:41:20.053Z,3.03
2017-09-07T09:43:47.648Z,3.27
2017-09-07T09:46:15.171Z,3.13
2017-09-07T09:48:42.703Z,3.20
2017-09-07T09:51:10.257Z,3.37
2017-09-07T09:53:38.718Z,3.13
2017-09-07T09:56:07.093Z,3.23
2017-09-07T09:58:34.605Z,3.73
2017-09-07T10:01:02.144Z,2.43
2017-09-07T10:03:29.698Z,3.07
2017-09-07T10:05:57.244Z,3.40
2017-09-07T10:08:24.796Z,2.70
2017-09-07T10:10:52.360Z,3.50
2017-09-07T10:13:19.873Z,3.10
2017-09-07T10:15:47.431Z,3.50
2017-09-07T10:18:14.947Z,2.90
2017-09-07T10:20:42.496Z,3.53
2017-09-07T10:23:10.014Z,4.17
2017-09-07T10:25:37.574Z,2.97
2017-09-07T10:28:05.100Z,3.23
2017-09-07T10:30:32.684Z,2.87
2017-09-07T10:33:00.213Z,3.20
2017-09-07T10:35:27.733Z,3.30
2017-09-07T10:37:55.341Z,3.13
2017-09-07T10:40:22.885Z,2.63
2017-09-07T10:42:50.453Z,2.97
2017-09-07T10:45:17.976Z,2.50
2017-09-07T10:47:45.491Z,2.67
2017-09-07T10:50:13.036Z,2.67
2017-09-07T10:52:40.554Z,2.17
2017-09-07T10:55:08.103Z,2.70
2017-09-07T10:57:35.664Z,2.80
2017-09-07T11:00:03.944Z,2.77
2017-09-07T11:02:31.492Z,3.17
2017-09-07T11:04:59.056Z,2.93
2017-09-07T11:07:26.568Z,2.97
2017-09-07T11:09:54.083Z,3.50
2017-09-07T11:12:21.641Z,3.30
2017-09-07T11:14:49.174Z,3.00
2017-09-07T11:17:16.767Z,3.20
2017-09-07T11:19:44.301Z,3.30
2017-09-07T11:22:11.828Z,3.13
2017-09-07T11:24:39.380Z,2.70
2017-09-07T11:27:06.903Z,3.30
2017-09-07T11:29:34.652Z,2.80
2017-09-07T11:32:02.207Z,3.00
2017-09-07T11:34:29.759Z,2.93
2017-09-07T11:36:57.320Z,3.20
2017-09-07T11:39:24.855Z,3.30
2017-09-07T11:41:52.378Z,2.80
2017-09-07T11:44:19.928Z,3.33
2017-09-07T11:46:47.445Z,3.47
2017-09-07T11:49:14.987Z,4.03
2017-09-07T11:51:42.497Z,3.00
2017-09-07T11:54:10.055Z,3.07
2017-09-07T11:56:37.565Z,2.67
2017-09-07T11:59:05.125Z,2.93
2017-09-07T12:01:32.650Z,3.30
2017-09-07T12:04:00.197Z,3.00
2017-09-07T12:06:27.721Z,2.90
2017-09-07T12:08:55.264Z,2.50
2017-09-07T12:11:22.924Z,2.77
2017-09-07T12:13:50.448Z,3.90
2017-09-07T12:16:17.960Z,3.20
2017-09-07T12:18:45.512Z,2.90
2017-09-07T12:21:13.046Z,2.97
2017-09-07T12:23:40.599Z,2.97
2017-09-07T12:26:08.168Z,2.90
2017-09-07T12:28:35.879Z,3.43
2017-09-07T12:31:03.435Z,2.33
2017-09-07T12:33:30.948Z,3.00
2017-09-07T12:35:58.510Z,2.40
2017-09-07T12:38:26.052Z,3.30
2017-09-07T12:40:53.581Z,2.00
2017-09-07T12:43:21.128Z,2.70
2017-09-07T12:45:48.660Z,2.70
2017-09-07T12:48:16.200Z,2.40
2017-09-07T12:50:43.715Z,2.40
2017-09-07T12:53:11.257Z,2.40
2017-09-07T12:55:39.156Z,2.17
2017-09-07T12:58:06.712Z,2.20
2017-09-07T13:00:34.352Z,2.70
2017-09-07T13:03:01.895Z,2.27
2017-09-07T13:05:29.412Z,2.00
2017-09-07T13:07:56.971Z,2.53
2017-09-07T13:10:24.499Z,2.97
2017-09-07T13:12:52.018Z,2.57
2017-09-07T13:15:19.576Z,2.80
2017-09-07T13:17:47.099Z,2.80
2017-09-07T13:20:14.668Z,3.40
2017-09-07T13:22:42.200Z,3.87
2017-09-07T13:25:09.778Z,3.13
2017-09-07T13:27:37.304Z,2.73
2017-09-07T13:30:04.824Z,2.30
2017-09-07T13:32:33.225Z,2.50
2017-09-07T13:35:00.768Z,3.37
2017-09-07T13:37:28.319Z,2.27
2017-09-07T13:39:55.836Z,2.93
2017-09-07T13:42:23.453Z,2.60
2017-09-07T13:44:50.961Z,3.10
2017-09-07T13:47:18.488Z,2.83
2017-09-07T13:49:46.043Z,2.40
2017-09-07T13:52:13.572Z,2.43
2017-09-07T13:54:41.132Z,2.67
2017-09-07T13:57:08.684Z,2.50
2017-09-07T13:59:36.199Z,3.43
2017-09-07T14:02:03.752Z,2.50
2017-09-07T14:04:31.264Z,2.60
2017-09-07T14:06:58.790Z,2.53
2017-09-07T14:09:26.372Z,2.40
2017-09-07T14:11:53.888Z,2.20
2017-09-07T14:14:21.404Z,2.40
2017-09-07T14:16:48.956Z,3.03
2017-09-07T14:19:16.524Z,2.73
2017-09-07T14:21:44.045Z,2.63
2017-09-07T14:24:11.564Z,3.40
2017-09-07T14:26:39.116Z,2.53
2017-09-07T14:29:06.688Z,2.60
2017-09-07T14:31:34.245Z,2.30
2017-09-07T14:34:01.752Z,2.27
2017-09-07T14:36:29.412Z,2.60
2017-09-07T14:38:56.927Z,2.43
2017-09-07T14:41:25.219Z,3.40
2017-09-07T14:43:52.800Z,3.13
2017-09-07T14:46:20.337Z,3.40
2017-09-07T14:48:47.859Z,3.17
2017-09-07T14:51:15.404Z,2.60
2017-09-07T14:53:42.976Z,2.77
2017-09-07T14:56:10.515Z,2.80
2017-09-07T14:58:38.056Z,3.10
2017-09-07T15:01:05.859Z,3.00
2017-09-07T15:03:33.382Z,3.00
2017-09-07T15:06:00.960Z,4.03
2017-09-07T15:08:28.484Z,2.23
2017-09-07T15:10:55.999Z,3.83
2017-09-07T15:13:23.547Z,2.30
2017-09-07T15:15:51.070Z,2.50
2017-09-07T15:18:18.619Z,3.00
2017-09-07T15:20:46.152Z,2.57
2017-09-07T15:23:13.705Z,3.00
2017-09-07T15:25:41.260Z,2.50
2017-09-07T15:28:08.776Z,2.20
2017-09-07T15:30:36.289Z,3.00
2017-09-07T15:33:03.846Z,3.10
2017-09-07T15:35:31.408Z,2.63
2017-09-07T15:37:58.943Z,2.60
2017-09-07T15:40:26.476Z,2.50
2017-09-07T15:42:54.046Z,2.43
2017-09-07T15:45:21.597Z,3.00
2017-09-07T15:47:49.163Z,2.40
2017-09-07T15:50:16.677Z,2.70
2017-09-07T15:52:44.244Z,2.60
2017-09-07T15:55:11.803Z,2.90
2017-09-07T15:57:39.324Z,2.97
2017-09-07T16:00:06.877Z,3.37
2017-09-07T16:02:34.437Z,2.83
2017-09-07T16:05:01.953Z,2.53
2017-09-07T16:07:29.491Z,1.90
2017-09-07T16:09:57.043Z,2.63
2017-09-07T16:12:24.557Z,2.90
2017-09-07T16:14:52.081Z,2.43
2017-09-07T16:17:19.686Z,2.40
2017-09-07T16:19:47.207Z,2.13
2017-09-07T16:22:14.780Z,2.53
2017-09-07T16:24:42.311Z,2.40
2017-09-07T16:27:09.895Z,2.77
2017-09-07T16:29:37.416Z,2.83
2017-09-07T16:32:04.938Z,2.90
2017-09-07T16:34:32.494Z,2.20
2017-09-07T16:37:00.008Z,2.90
2017-09-07T16:39:27.556Z,2.83
2017-09-07T16:41:55.125Z,2.30
2017-09-07T16:44:22.645Z,2.27
2017-09-07T16:46:50.205Z,2.97
2017-09-07T16:49:17.740Z,2.77
2017-09-07T16:51:45.268Z,2.50
2017-09-07T16:54:13.136Z,2.40
2017-09-07T16:56:40.685Z,2.40
2017-09-07T16:59:08.961Z,2.70
2017-09-07T17:01:37.127Z,2.63
2017-09-07T17:04:04.705Z,2.70
2017-09-07T17:06:32.243Z,3.00
2017-09-07T17:08:59.783Z,2.63
2017-09-07T17:11:27.332Z,3.03
2017-09-07T17:14:33.329Z,3.20
2017-09-07T17:17:01.020Z,3.13
2017-09-07T17:19:29.328Z,2.60
2017-09-07T17:21:56.833Z,3.10
2017-09-07T17:24:24.365Z,3.37
2017-09-07T17:26:51.895Z,3.13
2017-09-07T17:29:19.411Z,3.70
2017-09-07T17:31:46.957Z,4.13
2017-09-07T17:34:14.470Z,3.10
2017-09-07T17:36:42.015Z,2.30
2017-09-07T17:39:10.327Z,3.10
2017-09-07T17:41:37.835Z,3.30
2017-09-07T17:44:06.152Z,2.37
2017-09-07T17:46:33.695Z,3.70
2017-09-07T17:49:01.218Z,3.43
2017-09-07T17:51:28.833Z,4.10
2017-09-07T17:53:56.566Z,3.70
2017-09-07T17:56:24.847Z,3.23
2017-09-07T17:58:53.202Z,3.80
2017-09-07T18:01:20.776Z,4.10
2017-09-07T18:03:48.408Z,3.40
2017-09-07T18:06:15.920Z,3.63
2017-09-07T18:08:43.536Z,3.40
2017-09-07T18:11:11.100Z,2.80
2017-09-07T18:13:38.696Z,3.20
2017-09-07T18:16:06.246Z,3.23
2017-09-07T18:18:34.520Z,3.10
2017-09-07T18:21:02.867Z,3.17
2017-09-07T18:23:30.485Z,2.73
2017-09-07T18:25:58.856Z,3.03
2017-09-07T18:28:26.443Z,2.60
2017-09-07T18:30:53.956Z,3.37
2017-09-07T18:33:21.680Z,3.03
2017-09-07T18:35:49.220Z,2.80
2017-09-07T18:38:16.802Z,2.80
2017-09-07T18:40:44.403Z,3.50
2017-09-07T18:43:11.991Z,3.97
2017-09-07T18:45:39.511Z,2.83
2017-09-07T18:48:07.097Z,2.83
2017-09-07T18:50:35.367Z,2.97
2017-09-07T18:53:02.904Z,2.93
2017-09-07T18:55:30.445Z,3.37
2017-09-07T18:57:58.019Z,3.00
2017-09-07T19:00:25.567Z,3.17
2017-09-07T19:02:53.091Z,3.20
2017-09-07T19:05:21.533Z,3.30
2017-09-07T19:07:49.160Z,3.03
2017-09-07T19:10:16.706Z,2.87
2017-09-07T19:12:44.330Z,3.50
2017-09-07T19:15:11.852Z,3.20
2017-09-07T19:17:39.426Z,2.93
2017-09-07T19:20:06.979Z,3.37
2017-09-07T19:22:34.523Z,3.70
2017-09-07T19:25:02.135Z,3.07
2017-09-07T19:27:30.937Z,3.50
2017-09-07T19:29:59.461Z,3.20
2017-09-07T19:32:27.042Z,3.13
2017-09-07T19:34:54.628Z,3.30
2017-09-07T19:37:23.883Z,3.53
2017-09-07T19:39:56.085Z,3.83
2017-09-07T19:47:51.142Z,4.73
2017-09-07T19:50:18.912Z,4.90
2017-09-07T19:52:46.664Z,3.90
2017-09-07T19:55:14.335Z,3.80
2017-09-07T19:57:42.767Z,3.60
2017-09-07T20:00:10.480Z,3.70
2017-09-07T20:02:39.146Z,3.20
2017-09-07T20:05:07.613Z,4.53
2017-09-07T20:07:35.215Z,4.10
2017-09-07T20:10:03.598Z,4.13
2017-09-07T20:12:32.751Z,4.63
2017-09-07T20:17:40.794Z,4.63
2017-09-07T20:20:13.386Z,5.10
2017-09-07T20:22:46.518Z,3.70
2017-09-07T20:25:23.230Z,5.40
2017-09-07T20:27:54.304Z,4.17
2017-09-07T20:30:33.391Z,5.10
2017-09-07T20:33:06.501Z,4.77
2017-09-07T20:35:39.150Z,4.07
2017-09-07T20:38:16.282Z,4.43
2017-09-07T20:40:45.029Z,4.13
2017-09-07T20:43:20.274Z,4.23
2017-09-07T20:45:51.876Z,4.00
2017-09-07T20:48:28.629Z,4.37
2017-09-07T20:51:01.361Z,4.67
2017-09-07T20:53:34.294Z,4.20
2017-09-07T20:58:40.598Z,4.10
2017-09-07T21:01:15.145Z,4.03
2017-09-07T21:03:46.627Z,4.57
2017-09-07T21:06:16.580Z,3.87
2017-09-07T21:08:51.891Z,4.47
2017-09-07T21:11:26.866Z,4.33
2017-09-07T21:14:03.167Z,4.27
2017-09-07T21:16:33.124Z,4.83
2017-09-07T21:19:05.960Z,4.13
2017-09-07T21:21:34.909Z,4.10
2017-09-07T21:24:04.516Z,4.17
2017-09-07T21:26:34.662Z,4.00
2017-09-07T21:29:02.641Z,4.50
2017-09-07T21:31:31.558Z,4.00
2017-09-07T21:34:00.351Z,4.10
2017-09-07T21:36:28.788Z,4.40
2017-09-07T21:38:56.336Z,4.07
2017-09-07T21:41:23.848Z,4.77
2017-09-07T21:43:51.397Z,4.97
2017-09-07T21:46:18.939Z,4.00
2017-09-07T21:48:47.215Z,4.67
2017-09-07T21:51:14.755Z,5.33
2017-09-07T21:53:42.296Z,5.60
2017-09-07T21:56:09.853Z,4.33
2017-09-07T21:58:37.388Z,4.03
2017-09-07T22:01:04.937Z,4.17
2017-09-07T22:03:32.449Z,3.90
2017-09-07T22:05:59.962Z,3.97
2017-09-07T22:08:27.494Z,4.07
2017-09-07T22:10:55.000Z,3.97
2017-09-07T22:13:22.527Z,4.00
2017-09-07T22:15:50.076Z,4.33
2017-09-07T22:18:18.359Z,4.33
2017-09-07T22:20:45.939Z,4.03
2017-09-07T22:23:13.497Z,4.93
2017-09-07T22:25:41.008Z,4.90
2017-09-07T22:28:08.744Z,5.00
2017-09-07T22:30:36.284Z,4.17
2017-09-07T22:33:03.792Z,4.50
2017-09-07T22:35:31.358Z,3.60
2017-09-07T22:37:58.863Z,4.00
2017-09-07T22:40:26.406Z,4.10
2017-09-07T22:42:53.952Z,4.83
2017-09-07T22:45:22.264Z,4.47
2017-09-07T22:47:49.780Z,4.17
2017-09-07T22:50:17.331Z,5.37
2017-09-07T22:52:44.845Z,4.73
2017-09-07T22:55:12.360Z,5.17
2017-09-07T22:57:39.904Z,4.70
2017-09-07T23:00:07.433Z,5.47
2017-09-07T23:02:35.209Z,5.20
2017-09-07T23:05:02.751Z,5.43
2017-09-07T23:07:30.271Z,5.43
2017-09-07T23:09:58.575Z,5.80
2017-09-07T23:12:26.109Z,5.70
2017-09-07T23:14:54.438Z,5.27
2017-09-07T23:17:22.723Z,5.40
2017-09-07T23:19:50.236Z,5.10
2017-09-07T23:22:17.790Z,4.67
2017-09-07T23:24:46.124Z,5.07
2017-09-07T23:27:13.635Z,5.90
2017-09-07T23:29:41.911Z,4.80
2017-09-07T23:32:10.236Z,5.60
2017-09-07T23:34:37.759Z,4.70
2017-09-07T23:37:05.287Z,4.60
2017-09-07T23:39:32.830Z,4.90
2017-09-07T23:42:00.376Z,4.97
2017-09-07T23:44:27.931Z,4.90
2017-09-07T23:46:55.470Z,4.83
2017-09-07T23:49:22.983Z,4.80
2017-09-07T23:51:50.537Z,4.93
2017-09-07T23:54:18.053Z,4.70
2017-09-07T23:56:45.624Z,4.87
2017-09-07T23:59:13.137Z,5.20
